createdAt,value
2022-12-22T00:00:53.053Z,8.20
2022-12-22T00:06:15.210Z,8.20
2022-12-22T00:11:35.973Z,8.20
2022-12-22T00:16:57.916Z,8.30
2022-12-22T00:22:21.771Z,8.50
2022-12-22T00:27:47.131Z,8.50
2022-12-22T00:33:08.514Z,8.90
2022-12-22T00:38:34.860Z,8.80
2022-12-22T00:43:55.623Z,8.80
2022-12-22T00:49:16.807Z,8.90
2022-12-22T00:54:40.972Z,8.80
2022-12-22T01:00:02.065Z,8.80
2022-12-22T01:05:22.926Z,8.90
2022-12-22T01:10:45.859Z,9.00
2022-12-22T01:16:06.515Z,8.90
2022-12-22T01:21:30.012Z,8.90
2022-12-22T01:26:52.242Z,8.80
2022-12-22T01:32:13.599Z,8.80
2022-12-22T01:37:34.375Z,8.90
2022-12-22T01:42:56.362Z,9.00
2022-12-22T01:48:17.068Z,8.90
2022-12-22T01:53:41.315Z,8.80
2022-12-22T01:59:07.157Z,8.80
2022-12-22T02:04:30.558Z,8.90
2022-12-22T02:09:58.521Z,8.90
2022-12-22T02:15:32.038Z,9.00
2022-12-22T02:20:59.686Z,9.00
2022-12-22T02:26:34.390Z,9.10
2022-12-22T02:31:56.799Z,9.10
2022-12-22T02:37:24.657Z,9.10
2022-12-22T02:42:54.248Z,9.20
2022-12-22T02:48:22.714Z,9.20
2022-12-22T02:53:45.662Z,9.20
2022-12-22T02:59:07.544Z,9.20
2022-12-22T03:04:28.619Z,9.30
2022-12-22T03:09:49.326Z,9.00
2022-12-22T03:15:11.586Z,8.70
2022-12-22T03:20:32.366Z,8.70
2022-12-22T03:25:53.288Z,8.50
2022-12-22T03:31:00.952Z,8.40
2022-12-22T03:36:05.147Z,8.30
2022-12-22T03:41:08.454Z,8.40
2022-12-22T03:46:32.921Z,8.40
2022-12-22T03:51:37.622Z,8.40
2022-12-22T03:56:42.733Z,8.70
2022-12-22T04:01:49.060Z,8.90
2022-12-22T04:06:53.611Z,9.00
2022-12-22T04:12:29.552Z,9.10
2022-12-22T04:17:32.771Z,9.30
2022-12-22T04:22:37.051Z,9.40
2022-12-22T04:27:42.222Z,9.50
2022-12-22T04:32:45.560Z,9.60
2022-12-22T04:37:48.772Z,9.70
2022-12-22T04:42:53.453Z,9.70
2022-12-22T04:47:58.306Z,9.70
2022-12-22T04:53:01.470Z,9.50
2022-12-22T04:58:06.086Z,9.40
2022-12-22T05:03:12.660Z,9.20
2022-12-22T05:08:33.140Z,9.20
2022-12-22T05:13:40.867Z,9.10
2022-12-22T05:18:55.921Z,9.10
2022-12-22T05:24:01.907Z,9.00
2022-12-22T05:29:06.657Z,9.00
2022-12-22T05:34:11.775Z,8.90
2022-12-22T05:39:19.346Z,9.10
2022-12-22T05:44:23.920Z,9.10
2022-12-22T05:49:34.817Z,9.20
2022-12-22T05:54:38.337Z,9.30
2022-12-22T05:59:43.839Z,9.30
2022-12-22T06:04:47.946Z,9.30
2022-12-22T06:09:52.127Z,9.20
2022-12-22T06:15:02.743Z,9.00
2022-12-22T06:20:10.153Z,9.00
2022-12-22T06:25:18.738Z,8.90
2022-12-22T06:30:33.021Z,8.70
2022-12-22T06:35:41.826Z,8.60
2022-12-22T06:40:55.303Z,8.50
2022-12-22T06:46:05.491Z,8.70
2022-12-22T06:51:23.307Z,8.70
2022-12-22T06:56:26.503Z,8.80
2022-12-22T07:01:44.037Z,9.10
2022-12-22T07:06:52.530Z,9.10
2022-12-22T07:11:56.226Z,9.20
2022-12-22T07:17:01.332Z,8.90
2022-12-22T07:22:16.012Z,8.90
2022-12-22T07:27:19.502Z,8.90
2022-12-22T07:32:29.186Z,9.00
2022-12-22T07:37:37.074Z,9.10
2022-12-22T07:42:46.976Z,9.10
2022-12-22T07:47:56.123Z,8.90
2022-12-22T07:53:01.030Z,8.70
2022-12-22T07:58:04.348Z,8.90
2022-12-22T08:03:10.454Z,9.20
2022-12-22T08:08:27.405Z,9.10
2022-12-22T08:13:41.028Z,9.10
2022-12-22T08:18:53.489Z,9.00
2022-12-22T08:24:07.189Z,8.90
2022-12-22T08:29:14.211Z,8.70
2022-12-22T08:34:25.671Z,8.70
2022-12-22T08:39:33.956Z,8.70
2022-12-22T08:44:39.109Z,8.70
2022-12-22T08:49:46.932Z,8.80
2022-12-22T08:54:50.211Z,8.80
2022-12-22T08:59:57.903Z,9.00
2022-12-22T09:05:02.893Z,9.10
2022-12-22T09:10:10.287Z,9.20
2022-12-22T09:15:15.673Z,9.40
2022-12-22T09:20:24.842Z,9.50
2022-12-22T09:25:32.787Z,9.40
2022-12-22T09:30:36.136Z,9.20
2022-12-22T09:35:45.163Z,9.00
2022-12-22T09:40:49.651Z,9.00
2022-12-22T09:46:02.477Z,8.90
2022-12-22T09:51:19.844Z,8.80
2022-12-22T09:56:31.739Z,8.80
2022-12-22T10:02:06.539Z,8.80
2022-12-22T10:07:24.020Z,8.90
2022-12-22T10:12:29.937Z,9.20
2022-12-22T10:17:38.368Z,9.30
2022-12-22T10:22:57.041Z,9.30
2022-12-22T10:28:04.181Z,9.30
2022-12-22T10:33:13.435Z,9.30
2022-12-22T10:38:24.260Z,9.30
2022-12-22T10:48:55.260Z,9.40
2022-12-22T10:54:03.268Z,9.40
2022-12-22T10:59:24.443Z,9.40
2022-12-22T11:04:35.135Z,9.40
2022-12-22T11:09:42.673Z,9.40
2022-12-22T11:15:06.078Z,9.50
2022-12-22T11:20:36.045Z,9.50
2022-12-22T11:25:50.345Z,9.80
2022-12-22T11:31:12.770Z,9.90
2022-12-22T11:42:02.468Z,9.90
2022-12-22T11:47:18.226Z,9.90
2022-12-22T11:52:48.486Z,9.90
2022-12-22T11:58:15.221Z,10.00
2022-12-22T12:03:41.125Z,9.90
2022-12-22T12:08:59.794Z,10.10
2022-12-22T12:14:18.889Z,10.30
2022-12-22T12:20:00.214Z,10.50
2022-12-22T12:25:13.666Z,10.30
2022-12-22T12:30:38.177Z,10.00
2022-12-22T12:36:03.799Z,10.20
2022-12-22T12:41:22.257Z,10.30
2022-12-22T12:46:59.936Z,10.60
2022-12-22T12:52:04.136Z,10.70
2022-12-22T12:57:47.600Z,10.80
2022-12-22T13:02:59.894Z,10.70
2022-12-22T13:08:21.359Z,10.70
2022-12-22T13:13:58.571Z,11.00
2022-12-22T13:19:19.862Z,11.00
2022-12-22T13:24:36.629Z,10.90
2022-12-22T13:29:54.979Z,10.70
2022-12-22T13:35:32.453Z,10.60
2022-12-22T13:40:52.470Z,10.70
2022-12-22T13:45:57.895Z,10.50
2022-12-22T13:51:14.369Z,10.30
2022-12-22T13:56:21.012Z,10.20
2022-12-22T14:01:27.014Z,10.10
2022-12-22T14:06:36.519Z,10.10
2022-12-22T14:11:48.910Z,10.20
2022-12-22T14:17:05.638Z,9.90
2022-12-22T14:22:13.197Z,9.60
2022-12-22T14:27:23.962Z,9.60
2022-12-22T14:32:55.135Z,9.50
2022-12-22T14:38:18.529Z,9.40
2022-12-22T14:43:28.417Z,9.40
2022-12-22T14:48:50.627Z,9.40
2022-12-22T14:54:02.984Z,9.30
2022-12-22T14:59:26.078Z,9.40
2022-12-22T15:04:36.421Z,9.50
2022-12-22T15:15:15.492Z,9.30
2022-12-22T15:20:35.207Z,9.20
2022-12-22T15:25:44.628Z,9.00
2022-12-22T15:30:47.966Z,9.00
2022-12-22T15:35:51.496Z,9.00
2022-12-22T15:41:03.502Z,9.00
2022-12-22T15:46:16.926Z,9.10
2022-12-22T15:51:24.148Z,9.00
2022-12-22T15:56:34.499Z,9.10
2022-12-22T16:01:46.219Z,9.00
2022-12-22T16:06:51.037Z,8.90
2022-12-22T16:11:55.852Z,8.70
2022-12-22T16:17:02.049Z,8.70
2022-12-22T16:22:08.886Z,8.70
2022-12-22T16:27:14.891Z,8.70
2022-12-22T16:32:23.483Z,8.80
2022-12-22T16:37:29.289Z,8.70
2022-12-22T16:48:01.865Z,8.60
2022-12-22T16:53:09.559Z,8.60
2022-12-22T16:58:27.180Z,8.60
2022-12-22T17:03:33.752Z,8.70
2022-12-22T17:08:46.453Z,8.30
2022-12-22T17:14:07.166Z,8.10
2022-12-22T17:19:19.524Z,8.30
2022-12-22T17:24:28.442Z,8.40
2022-12-22T17:29:35.474Z,8.30
2022-12-22T17:34:42.768Z,8.20
2022-12-22T17:39:49.049Z,8.40
2022-12-22T17:45:06.734Z,8.50
2022-12-22T17:50:14.188Z,8.50
2022-12-22T17:56:05.877Z,8.50
2022-12-22T18:01:01.871Z,8.50
2022-12-22T18:06:07.172Z,8.50
2022-12-22T18:11:15.136Z,8.50
2022-12-22T18:16:21.879Z,8.50
2022-12-22T18:21:32.703Z,8.60
2022-12-22T18:26:41.878Z,8.70
2022-12-22T18:31:47.005Z,8.70
2022-12-22T18:37:04.190Z,8.70
2022-12-22T18:42:26.886Z,8.70
2022-12-22T18:47:32.382Z,8.80
2022-12-22T18:52:35.838Z,9.00
2022-12-22T18:57:43.012Z,9.00
2022-12-22T19:02:49.751Z,9.00
2022-12-22T19:07:53.682Z,9.00
2022-12-22T19:13:01.150Z,9.00
2022-12-22T19:18:21.237Z,9.00
2022-12-22T19:23:54.309Z,9.20
2022-12-22T19:29:00.748Z,9.20
2022-12-22T19:34:09.156Z,9.10
2022-12-22T19:44:33.288Z,9.00
2022-12-22T19:49:48.518Z,8.90
2022-12-22T19:54:54.631Z,8.90
2022-12-22T20:00:05.489Z,8.90
2022-12-22T20:05:30.404Z,8.90
2022-12-22T20:10:36.294Z,8.90
2022-12-22T20:15:55.737Z,8.90
2022-12-22T20:21:10.065Z,8.80
2022-12-22T20:26:20.336Z,8.80
2022-12-22T20:31:32.294Z,8.70
2022-12-22T20:36:41.262Z,8.70
2022-12-22T20:41:52.509Z,8.60
2022-12-22T20:47:00.371Z,8.70
2022-12-22T20:52:10.304Z,8.60
2022-12-22T20:57:17.406Z,8.60
2022-12-22T21:02:36.048Z,8.60
2022-12-22T21:07:50.625Z,8.50
2022-12-22T21:12:54.390Z,8.40
2022-12-22T21:18:03.517Z,8.40
2022-12-22T21:23:15.147Z,8.40
2022-12-22T21:28:34.780Z,8.40
2022-12-22T21:33:38.476Z,8.30
2022-12-22T21:38:45.611Z,8.30
2022-12-22T21:43:48.992Z,8.30
2022-12-22T21:49:03.421Z,8.20
2022-12-22T21:54:12.854Z,8.20
2022-12-22T21:59:21.264Z,8.10
2022-12-22T22:04:30.892Z,8.20
2022-12-22T22:09:41.591Z,8.10
2022-12-22T22:14:51.050Z,8.10
2022-12-22T22:20:00.097Z,8.20
2022-12-22T22:25:08.329Z,8.20
2022-12-22T22:30:18.429Z,8.20
2022-12-22T22:35:22.332Z,8.20
2022-12-22T22:45:44.410Z,8.20
2022-12-22T22:50:48.311Z,8.30
2022-12-22T22:55:56.667Z,8.30
2022-12-22T23:01:14.334Z,8.40
2022-12-22T23:06:20.515Z,8.50
2022-12-22T23:11:27.719Z,8.50
2022-12-22T23:16:37.950Z,8.50
2022-12-22T23:21:43.959Z,8.50
2022-12-22T23:26:52.730Z,8.70
2022-12-22T23:31:59.040Z,8.80
2022-12-22T23:37:04.311Z,8.90
2022-12-22T23:42:10.735Z,8.90
2022-12-22T23:47:16.744Z,8.90
2022-12-22T23:52:25.901Z,8.90
2022-12-22T23:57:34.463Z,8.90
